sensor_id;sensor_type;location;lat;lon;timestamp;pressure;altitude;pressure_sealevel;temperature;humidity
52591;BME280;38483;42.620;25.394;2023-07-16T00:03:14;97289.53;;;24.68;65.91
52591;BME280;38483;42.620;25.394;2023-07-16T00:06:36;97308.34;;;24.74;66.42
52591;BME280;38483;42.620;25.394;2023-07-16T00:10:00;97297.66;;;25.01;65.31
52591;BME280;38483;42.620;25.394;2023-07-16T00:13:22;97322.38;;;25.45;64.12
52591;BME280;38483;42.620;25.394;2023-07-16T00:16:47;97313.59;;;25.70;63.48
52591;BME280;38483;42.620;25.394;2023-07-16T00:20:11;97315.84;;;25.57;64.23
52591;BME280;38483;42.620;25.394;2023-07-16T00:23:32;97309.28;;;25.44;64.61
52591;BME280;38483;42.620;25.394;2023-07-16T00:26:54;97307.47;;;25.44;64.70
52591;BME280;38483;42.620;25.394;2023-07-16T00:30:18;97310.59;;;25.22;65.43
52591;BME280;38483;42.620;25.394;2023-07-16T00:33:38;97310.53;;;24.79;67.18
52591;BME280;38483;42.620;25.394;2023-07-16T00:36:59;97305.56;;;24.93;66.76
52591;BME280;38483;42.620;25.394;2023-07-16T00:40:21;97301.38;;;24.91;67.50
52591;BME280;38483;42.620;25.394;2023-07-16T00:43:41;97306.59;;;25.00;66.92
52591;BME280;38483;42.620;25.394;2023-07-16T00:47:02;97294.09;;;24.31;69.41
52591;BME280;38483;42.620;25.394;2023-07-16T00:50:23;97296.53;;;23.87;71.04
52591;BME280;38483;42.620;25.394;2023-07-16T00:53:44;97288.63;;;23.78;71.96
52591;BME280;38483;42.620;25.394;2023-07-16T00:57:06;97291.38;;;24.22;69.88
52591;BME280;38483;42.620;25.394;2023-07-16T01:00:28;97292.88;;;24.52;69.15
52591;BME280;38483;42.620;25.394;2023-07-16T01:03:51;97273.78;;;24.49;68.42
52591;BME280;38483;42.620;25.394;2023-07-16T01:07:13;97289.25;;;24.71;68.01
52591;BME280;38483;42.620;25.394;2023-07-16T01:10:38;97283.50;;;24.93;67.23
52591;BME280;38483;42.620;25.394;2023-07-16T01:15:05;97260.56;;;24.84;67.19
52591;BME280;38483;42.620;25.394;2023-07-16T01:18:30;97290.56;;;24.84;67.40
52591;BME280;38483;42.620;25.394;2023-07-16T01:22:22;97275.91;;;24.63;68.12
52591;BME280;38483;42.620;25.394;2023-07-16T01:28:53;97282.66;;;24.12;69.85
52591;BME280;38483;42.620;25.394;2023-07-16T01:32:11;97279.50;;;24.27;69.82
52591;BME280;38483;42.620;25.394;2023-07-16T01:35:35;97283.09;;;24.53;68.81
52591;BME280;38483;42.620;25.394;2023-07-16T01:39:01;97285.63;;;24.27;69.86
52591;BME280;38483;42.620;25.394;2023-07-16T01:42:23;97285.03;;;24.33;69.68
52591;BME280;38483;42.620;25.394;2023-07-16T01:45:45;97287.44;;;24.27;69.28
52591;BME280;38483;42.620;25.394;2023-07-16T01:49:06;97294.00;;;24.22;69.33
52591;BME280;38483;42.620;25.394;2023-07-16T01:52:28;97265.28;;;24.00;69.70
52591;BME280;38483;42.620;25.394;2023-07-16T01:55:51;97284.91;;;24.07;70.12
52591;BME280;38483;42.620;25.394;2023-07-16T01:59:11;97280.69;;;24.14;70.03
52591;BME280;38483;42.620;25.394;2023-07-16T02:02:35;97284.50;;;24.30;69.23
52591;BME280;38483;42.620;25.394;2023-07-16T02:05:56;97282.03;;;24.46;68.39
52591;BME280;38483;42.620;25.394;2023-07-16T02:09:06;97279.22;;;24.30;69.17
52591;BME280;38483;42.620;25.394;2023-07-16T02:12:07;97277.59;;;24.19;68.69
52591;BME280;38483;42.620;25.394;2023-07-16T02:15:28;97260.94;;;24.09;69.46
52591;BME280;38483;42.620;25.394;2023-07-16T02:18:49;97273.69;;;24.23;68.98
52591;BME280;38483;42.620;25.394;2023-07-16T02:22:11;97280.94;;;24.39;68.64
52591;BME280;38483;42.620;25.394;2023-07-16T02:25:32;97284.53;;;24.47;68.61
52591;BME280;38483;42.620;25.394;2023-07-16T02:28:53;97283.09;;;24.53;67.92
52591;BME280;38483;42.620;25.394;2023-07-16T02:32:14;97282.75;;;24.20;68.34
52591;BME280;38483;42.620;25.394;2023-07-16T02:35:37;97267.59;;;23.49;71.42
52591;BME280;38483;42.620;25.394;2023-07-16T02:38:58;97294.31;;;23.46;71.92
52591;BME280;38483;42.620;25.394;2023-07-16T02:42:22;97262.41;;;23.57;70.58
52591;BME280;38483;42.620;25.394;2023-07-16T02:45:44;97289.94;;;23.64;71.31
52591;BME280;38483;42.620;25.394;2023-07-16T02:49:05;97293.84;;;23.60;71.85
52591;BME280;38483;42.620;25.394;2023-07-16T02:52:26;97289.59;;;23.30;72.05
52591;BME280;38483;42.620;25.394;2023-07-16T02:55:48;97268.88;;;23.16;73.08
52591;BME280;38483;42.620;25.394;2023-07-16T02:59:12;97289.06;;;23.17;72.45
52591;BME280;38483;42.620;25.394;2023-07-16T03:02:33;97273.91;;;23.10;72.47
52591;BME280;38483;42.620;25.394;2023-07-16T03:05:53;97299.34;;;23.20;72.61
52591;BME280;38483;42.620;25.394;2023-07-16T03:09:14;97296.81;;;23.19;72.33
52591;BME280;38483;42.620;25.394;2023-07-16T03:12:35;97303.66;;;23.21;72.51
52591;BME280;38483;42.620;25.394;2023-07-16T03:15:59;97288.53;;;22.95;73.36
52591;BME280;38483;42.620;25.394;2023-07-16T03:19:20;97297.69;;;22.91;73.89
52591;BME280;38483;42.620;25.394;2023-07-16T03:22:42;97288.50;;;23.14;72.55
52591;BME280;38483;42.620;25.394;2023-07-16T03:26:32;97303.25;;;23.72;70.90
52591;BME280;38483;42.620;25.394;2023-07-16T03:30:05;97307.78;;;23.89;70.50
52591;BME280;38483;42.620;25.394;2023-07-16T03:33:32;97311.66;;;24.04;70.01
52591;BME280;38483;42.620;25.394;2023-07-16T03:37:03;97309.72;;;24.06;69.97
52591;BME280;38483;42.620;25.394;2023-07-16T03:40:31;97303.72;;;23.95;70.14
52591;BME280;38483;42.620;25.394;2023-07-16T03:43:52;97312.50;;;23.95;69.37
52591;BME280;38483;42.620;25.394;2023-07-16T03:47:18;97318.28;;;24.18;69.36
52591;BME280;38483;42.620;25.394;2023-07-16T03:50:39;97319.72;;;24.12;68.96
52591;BME280;38483;42.620;25.394;2023-07-16T03:53:28;97325.88;;;24.31;68.42
52591;BME280;38483;42.620;25.394;2023-07-16T03:55:57;97317.22;;;24.56;68.03
52591;BME280;38483;42.620;25.394;2023-07-16T03:58:30;97313.25;;;25.04;66.22
52591;BME280;38483;42.620;25.394;2023-07-16T04:01:26;97303.97;;;24.83;65.85
52591;BME280;38483;42.620;25.394;2023-07-16T04:03:56;97318.38;;;25.06;65.72
52591;BME280;38483;42.620;25.394;2023-07-16T04:06:33;97312.78;;;25.09;65.50
52591;BME280;38483;42.620;25.394;2023-07-16T04:09:56;97313.19;;;25.40;65.21
52591;BME280;38483;42.620;25.394;2023-07-16T04:12:24;97318.47;;;26.09;62.51
52591;BME280;38483;42.620;25.394;2023-07-16T04:14:56;97326.13;;;26.12;62.19
52591;BME280;38483;42.620;25.394;2023-07-16T04:17:30;97316.22;;;26.30;61.28
52591;BME280;38483;42.620;25.394;2023-07-16T04:20:13;97314.78;;;26.43;61.19
52591;BME280;38483;42.620;25.394;2023-07-16T04:22:54;97315.31;;;26.55;61.16
52591;BME280;38483;42.620;25.394;2023-07-16T04:25:37;97311.13;;;26.44;61.63
52591;BME280;38483;42.620;25.394;2023-07-16T04:28:10;97311.03;;;26.70;60.16
52591;BME280;38483;42.620;25.394;2023-07-16T04:30:48;97326.53;;;26.83;60.31
52591;BME280;38483;42.620;25.394;2023-07-16T04:33:45;97331.53;;;27.02;60.54
52591;BME280;38483;42.620;25.394;2023-07-16T04:36:51;97337.56;;;27.52;58.47
52591;BME280;38483;42.620;25.394;2023-07-16T04:39:19;97328.56;;;27.37;58.59
52591;BME280;38483;42.620;25.394;2023-07-16T04:41:46;97326.41;;;27.32;58.47
52591;BME280;38483;42.620;25.394;2023-07-16T04:44:15;97291.41;;;26.63;60.79
52591;BME280;38483;42.620;25.394;2023-07-16T04:46:43;97358.38;;;27.41;59.50
52591;BME280;38483;42.620;25.394;2023-07-16T04:49:11;97317.78;;;27.55;58.30
52591;BME280;38483;42.620;25.394;2023-07-16T04:51:45;97273.72;;;27.36;57.92
52591;BME280;38483;42.620;25.394;2023-07-16T04:54:13;97325.91;;;27.61;58.76
52591;BME280;38483;42.620;25.394;2023-07-16T04:57:12;97290.59;;;27.83;57.28
52591;BME280;38483;42.620;25.394;2023-07-16T04:59:41;97316.97;;;28.09;57.06
52591;BME280;38483;42.620;25.394;2023-07-16T05:02:30;97340.91;;;28.25;56.68
52591;BME280;38483;42.620;25.394;2023-07-16T05:05:00;97323.13;;;28.17;58.18
52591;BME280;38483;42.620;25.394;2023-07-16T05:07:31;97332.34;;;28.46;56.28
52591;BME280;38483;42.620;25.394;2023-07-16T05:10:14;97316.66;;;28.12;57.13
52591;BME280;38483;42.620;25.394;2023-07-16T05:12:41;97304.81;;;28.53;55.78
52591;BME280;38483;42.620;25.394;2023-07-16T05:15:09;97343.72;;;28.70;55.98
52591;BME280;38483;42.620;25.394;2023-07-16T05:17:39;97338.75;;;28.90;56.27
52591;BME280;38483;42.620;25.394;2023-07-16T05:20:27;97341.06;;;28.70;55.00
52591;BME280;38483;42.620;25.394;2023-07-16T05:23:50;97337.72;;;28.38;56.18
52591;BME280;38483;42.620;25.394;2023-07-16T05:27:21;97309.06;;;28.40;56.05
52591;BME280;38483;42.620;25.394;2023-07-16T05:30:44;97339.34;;;29.00;55.20
52591;BME280;38483;42.620;25.394;2023-07-16T05:33:47;97331.38;;;29.23;54.65
52591;BME280;38483;42.620;25.394;2023-07-16T05:36:18;97318.09;;;29.15;53.77
52591;BME280;38483;42.620;25.394;2023-07-16T05:38:54;97354.38;;;29.46;53.75
52591;BME280;38483;42.620;25.394;2023-07-16T05:41:23;97335.72;;;29.24;53.42
52591;BME280;38483;42.620;25.394;2023-07-16T05:44:13;97350.72;;;29.25;53.41
52591;BME280;38483;42.620;25.394;2023-07-16T05:47:47;97345.31;;;29.33;53.87
52591;BME280;38483;42.620;25.394;2023-07-16T05:51:34;97345.78;;;29.59;52.77
52591;BME280;38483;42.620;25.394;2023-07-16T05:55:24;97352.41;;;29.63;52.14
52591;BME280;38483;42.620;25.394;2023-07-16T05:58:48;97332.69;;;29.64;51.71
52591;BME280;38483;42.620;25.394;2023-07-16T06:02:13;97353.13;;;29.80;52.19
52591;BME280;38483;42.620;25.394;2023-07-16T06:05:36;97354.59;;;29.97;50.75
52591;BME280;38483;42.620;25.394;2023-07-16T06:09:08;97351.63;;;29.77;51.52
52591;BME280;38483;42.620;25.394;2023-07-16T06:12:42;97353.03;;;30.02;50.17
52591;BME280;38483;42.620;25.394;2023-07-16T06:16:05;97358.09;;;30.12;49.56
52591;BME280;38483;42.620;25.394;2023-07-16T06:19:28;97347.31;;;30.05;49.89
52591;BME280;38483;42.620;25.394;2023-07-16T06:22:55;97361.91;;;30.46;48.15
52591;BME280;38483;42.620;25.394;2023-07-16T06:26:29;97361.63;;;30.56;46.72
52591;BME280;38483;42.620;25.394;2023-07-16T06:30:00;97366.03;;;30.49;45.68
52591;BME280;38483;42.620;25.394;2023-07-16T06:33:27;97355.63;;;30.10;44.86
52591;BME280;38483;42.620;25.394;2023-07-16T06:36:50;97347.06;;;30.15;45.36
52591;BME280;38483;42.620;25.394;2023-07-16T06:40:14;97352.03;;;30.18;45.50
52591;BME280;38483;42.620;25.394;2023-07-16T06:43:41;97341.72;;;30.00;46.43
52591;BME280;38483;42.620;25.394;2023-07-16T06:47:09;97350.72;;;29.62;47.19
52591;BME280;38483;42.620;25.394;2023-07-16T06:50:31;97347.59;;;29.58;47.63
52591;BME280;38483;42.620;25.394;2023-07-16T06:53:57;97345.81;;;29.36;47.87
52591;BME280;38483;42.620;25.394;2023-07-16T06:57:18;97348.25;;;29.60;46.58
52591;BME280;38483;42.620;25.394;2023-07-16T07:00:56;97351.19;;;29.88;46.70
52591;BME280;38483;42.620;25.394;2023-07-16T07:04:22;97344.00;;;30.47;45.14
52591;BME280;38483;42.620;25.394;2023-07-16T07:08:22;97344.88;;;30.69;44.52
52591;BME280;38483;42.620;25.394;2023-07-16T07:11:45;97351.78;;;30.92;45.24
52591;BME280;38483;42.620;25.394;2023-07-16T07:15:54;97349.63;;;31.02;44.62
52591;BME280;38483;42.620;25.394;2023-07-16T07:19:15;97351.53;;;31.08;44.68
52591;BME280;38483;42.620;25.394;2023-07-16T07:22:45;97357.28;;;30.40;45.09
52591;BME280;38483;42.620;25.394;2023-07-16T07:26:09;97285.31;;;29.81;46.71
52591;BME280;38483;42.620;25.394;2023-07-16T07:29:36;97269.09;;;30.11;46.13
52591;BME280;38483;42.620;25.394;2023-07-16T07:33:10;97332.66;;;29.87;45.95
52591;BME280;38483;42.620;25.394;2023-07-16T07:36:44;97266.72;;;29.72;46.00
52591;BME280;38483;42.620;25.394;2023-07-16T07:40:15;97336.09;;;30.53;46.04
52591;BME280;38483;42.620;25.394;2023-07-16T07:43:11;97341.97;;;30.64;45.30
52591;BME280;38483;42.620;25.394;2023-07-16T07:46:55;97346.22;;;30.14;45.77
52591;BME280;38483;42.620;25.394;2023-07-16T07:50:23;97341.41;;;29.95;45.10
52591;BME280;38483;42.620;25.394;2023-07-16T07:53:45;97332.56;;;29.80;45.00
52591;BME280;38483;42.620;25.394;2023-07-16T07:56:31;97336.06;;;29.95;45.91
52591;BME280;38483;42.620;25.394;2023-07-16T07:59:48;97309.16;;;29.67;46.16
52591;BME280;38483;42.620;25.394;2023-07-16T08:03:20;97341.50;;;29.50;45.83
52591;BME280;38483;42.620;25.394;2023-07-16T08:06:58;97341.78;;;30.21;45.01
52591;BME280;38483;42.620;25.394;2023-07-16T08:10:25;97347.97;;;30.51;44.59
52591;BME280;38483;42.620;25.394;2023-07-16T08:13:50;97346.13;;;30.66;43.75
52591;BME280;38483;42.620;25.394;2023-07-16T08:17:19;97356.13;;;30.93;42.75
52591;BME280;38483;42.620;25.394;2023-07-16T08:20:12;97353.13;;;30.52;44.14
52591;BME280;38483;42.620;25.394;2023-07-16T08:23:37;97350.13;;;30.91;43.84
52591;BME280;38483;42.620;25.394;2023-07-16T08:27:01;97345.63;;;31.13;43.55
52591;BME280;38483;42.620;25.394;2023-07-16T08:30:33;97350.41;;;31.39;43.55
52591;BME280;38483;42.620;25.394;2023-07-16T08:34:28;97349.19;;;31.20;44.49
52591;BME280;38483;42.620;25.394;2023-07-16T08:37:52;97351.25;;;31.18;44.37
52591;BME280;38483;42.620;25.394;2023-07-16T08:41:15;97337.72;;;31.26;44.24
52591;BME280;38483;42.620;25.394;2023-07-16T08:44:54;97341.16;;;30.99;44.45
52591;BME280;38483;42.620;25.394;2023-07-16T08:48:07;97332.03;;;31.14;44.38
52591;BME280;38483;42.620;25.394;2023-07-16T08:51:58;97304.06;;;30.60;45.45
52591;BME280;38483;42.620;25.394;2023-07-16T08:55:03;97333.91;;;30.78;45.64
52591;BME280;38483;42.620;25.394;2023-07-16T08:58:32;97333.38;;;31.04;44.70
52591;BME280;38483;42.620;25.394;2023-07-16T09:02:00;97331.09;;;31.22;44.93
52591;BME280;38483;42.620;25.394;2023-07-16T09:05:23;97329.00;;;31.39;44.16
52591;BME280;38483;42.620;25.394;2023-07-16T09:08:46;97340.41;;;31.47;43.65
52591;BME280;38483;42.620;25.394;2023-07-16T09:12:10;97341.28;;;31.33;44.46
52591;BME280;38483;42.620;25.394;2023-07-16T09:15:37;97332.63;;;31.52;43.68
52591;BME280;38483;42.620;25.394;2023-07-16T09:19:09;97334.38;;;31.66;42.72
52591;BME280;38483;42.620;25.394;2023-07-16T09:22:29;97317.31;;;31.74;43.26
52591;BME280;38483;42.620;25.394;2023-07-16T09:25:55;97330.59;;;32.09;42.86
52591;BME280;38483;42.620;25.394;2023-07-16T09:29:17;97319.34;;;31.93;42.46
52591;BME280;38483;42.620;25.394;2023-07-16T09:32:41;97333.56;;;32.28;41.22
52591;BME280;38483;42.620;25.394;2023-07-16T09:36:03;97330.56;;;31.54;42.75
52591;BME280;38483;42.620;25.394;2023-07-16T09:39:29;97320.28;;;31.58;43.10
52591;BME280;38483;42.620;25.394;2023-07-16T09:42:52;97311.25;;;31.59;43.55
52591;BME280;38483;42.620;25.394;2023-07-16T09:46:24;97300.38;;;31.39;43.49
52591;BME280;38483;42.620;25.394;2023-07-16T09:49:50;97299.16;;;31.42;43.66
52591;BME280;38483;42.620;25.394;2023-07-16T09:53:20;97314.38;;;31.62;42.75
52591;BME280;38483;42.620;25.394;2023-07-16T09:59:46;97304.03;;;31.87;43.10
52591;BME280;38483;42.620;25.394;2023-07-16T10:03:09;97284.97;;;31.20;42.75
52591;BME280;38483;42.620;25.394;2023-07-16T10:06:32;97303.22;;;31.38;42.93
52591;BME280;38483;42.620;25.394;2023-07-16T10:09:55;97292.94;;;31.62;42.97
52591;BME280;38483;42.620;25.394;2023-07-16T10:13:21;97291.16;;;32.03;41.73
52591;BME280;38483;42.620;25.394;2023-07-16T10:16:46;97277.81;;;32.51;40.79
52591;BME280;38483;42.620;25.394;2023-07-16T10:19:47;97280.13;;;32.67;40.94
52591;BME280;38483;42.620;25.394;2023-07-16T10:23:17;97272.66;;;32.62;41.23
52591;BME280;38483;42.620;25.394;2023-07-16T10:26:41;97260.41;;;31.65;42.41
52591;BME280;38483;42.620;25.394;2023-07-16T10:30:08;97274.53;;;32.15;41.98
52591;BME280;38483;42.620;25.394;2023-07-16T10:33:30;97272.31;;;32.25;41.99
52591;BME280;38483;42.620;25.394;2023-07-16T10:36:59;97268.50;;;32.47;40.76
52591;BME280;38483;42.620;25.394;2023-07-16T10:40:23;97270.41;;;32.12;42.05
52591;BME280;38483;42.620;25.394;2023-07-16T10:43:57;97264.41;;;32.57;41.13
52591;BME280;38483;42.620;25.394;2023-07-16T10:47:22;97262.06;;;31.94;42.93
52591;BME280;38483;42.620;25.394;2023-07-16T10:50:46;97255.13;;;31.78;43.62
52591;BME280;38483;42.620;25.394;2023-07-16T10:54:10;97254.06;;;32.00;43.33
52591;BME280;38483;42.620;25.394;2023-07-16T10:57:31;97231.75;;;31.66;42.56
52591;BME280;38483;42.620;25.394;2023-07-16T11:00:53;97237.84;;;31.81;41.90
52591;BME280;38483;42.620;25.394;2023-07-16T11:04:18;97245.22;;;32.13;41.92
52591;BME280;38483;42.620;25.394;2023-07-16T11:07:42;97248.56;;;31.81;42.45
52591;BME280;38483;42.620;25.394;2023-07-16T11:11:03;97245.22;;;32.06;41.39
52591;BME280;38483;42.620;25.394;2023-07-16T11:14:24;97213.53;;;32.23;41.22
52591;BME280;38483;42.620;25.394;2023-07-16T11:17:48;97231.81;;;32.13;41.22
52591;BME280;38483;42.620;25.394;2023-07-16T11:21:08;97222.81;;;32.21;41.78
52591;BME280;38483;42.620;25.394;2023-07-16T11:24:41;97225.03;;;32.11;41.19
52591;BME280;38483;42.620;25.394;2023-07-16T11:28:03;97227.50;;;32.12;41.31
52591;BME280;38483;42.620;25.394;2023-07-16T11:31:38;97225.00;;;32.04;41.71
52591;BME280;38483;42.620;25.394;2023-07-16T11:34:57;97219.22;;;32.48;40.75
52591;BME280;38483;42.620;25.394;2023-07-16T11:38:19;97205.00;;;32.67;40.59
52591;BME280;38483;42.620;25.394;2023-07-16T11:41:42;97212.44;;;32.78;40.14
52591;BME280;38483;42.620;25.394;2023-07-16T11:45:15;97218.66;;;32.85;39.31
52591;BME280;38483;42.620;25.394;2023-07-16T11:48:33;97207.09;;;32.91;38.82
52591;BME280;38483;42.620;25.394;2023-07-16T11:52:00;97213.69;;;33.74;37.67
52591;BME280;38483;42.620;25.394;2023-07-16T11:55:29;97222.81;;;33.59;38.38
52591;BME280;38483;42.620;25.394;2023-07-16T11:58:51;97214.88;;;33.84;37.75
52591;BME280;38483;42.620;25.394;2023-07-16T12:02:26;97193.84;;;33.68;35.46
52591;BME280;38483;42.620;25.394;2023-07-16T12:05:56;97209.25;;;34.05;35.57
52591;BME280;38483;42.620;25.394;2023-07-16T12:09:19;97176.88;;;33.74;36.10
52591;BME280;38483;42.620;25.394;2023-07-16T12:12:44;97209.97;;;34.32;35.24
52591;BME280;38483;42.620;25.394;2023-07-16T12:16:08;97206.00;;;34.41;35.38
52591;BME280;38483;42.620;25.394;2023-07-16T12:19:29;97208.50;;;34.36;35.63
52591;BME280;38483;42.620;25.394;2023-07-16T12:22:54;97198.75;;;33.84;36.14
52591;BME280;38483;42.620;25.394;2023-07-16T12:26:16;97207.06;;;33.76;36.70
52591;BME280;38483;42.620;25.394;2023-07-16T12:29:38;97214.31;;;33.76;36.17
52591;BME280;38483;42.620;25.394;2023-07-16T12:33:08;97209.56;;;33.78;35.65
52591;BME280;38483;42.620;25.394;2023-07-16T12:36:33;97201.88;;;33.81;36.07
52591;BME280;38483;42.620;25.394;2023-07-16T12:39:57;97211.00;;;33.74;37.22
52591;BME280;38483;42.620;25.394;2023-07-16T12:43:28;97203.50;;;34.02;36.44
52591;BME280;38483;42.620;25.394;2023-07-16T12:46:53;97204.63;;;33.48;36.90
52591;BME280;38483;42.620;25.394;2023-07-16T12:50:23;97196.78;;;33.53;37.17
52591;BME280;38483;42.620;25.394;2023-07-16T12:53:44;97190.75;;;33.78;37.19
52591;BME280;38483;42.620;25.394;2023-07-16T12:57:16;97194.59;;;34.01;36.98
52591;BME280;38483;42.620;25.394;2023-07-16T13:00:40;97198.59;;;34.30;35.69
52591;BME280;38483;42.620;25.394;2023-07-16T13:08:18;97159.66;;;34.39;35.67
52591;BME280;38483;42.620;25.394;2023-07-16T13:16:25;97184.69;;;34.02;36.47
52591;BME280;38483;42.620;25.394;2023-07-16T13:20:00;97180.66;;;34.17;36.00
52591;BME280;38483;42.620;25.394;2023-07-16T13:24:12;97164.69;;;34.29;35.36
52591;BME280;38483;42.620;25.394;2023-07-16T13:27:40;97179.47;;;34.51;34.84
52591;BME280;38483;42.620;25.394;2023-07-16T13:31:03;97181.31;;;34.57;34.99
52591;BME280;38483;42.620;25.394;2023-07-16T13:34:27;97179.59;;;34.25;35.23
52591;BME280;38483;42.620;25.394;2023-07-16T13:37:53;97166.28;;;33.92;35.80
52591;BME280;38483;42.620;25.394;2023-07-16T13:41:22;97147.03;;;34.02;35.67
52591;BME280;38483;42.620;25.394;2023-07-16T13:44:47;97166.84;;;34.14;36.20
52591;BME280;38483;42.620;25.394;2023-07-16T13:48:41;97159.22;;;33.98;35.74
52591;BME280;38483;42.620;25.394;2023-07-16T13:52:21;97153.03;;;33.91;36.79
52591;BME280;38483;42.620;25.394;2023-07-16T13:55:43;97147.78;;;33.64;37.73
52591;BME280;38483;42.620;25.394;2023-07-16T13:59:06;97152.03;;;33.85;36.97
52591;BME280;38483;42.620;25.394;2023-07-16T14:02:33;97158.53;;;34.15;36.24
52591;BME280;38483;42.620;25.394;2023-07-16T14:05:55;97136.59;;;33.67;38.33
52591;BME280;38483;42.620;25.394;2023-07-16T14:09:18;97151.03;;;33.80;38.19
52591;BME280;38483;42.620;25.394;2023-07-16T14:13:58;97155.00;;;33.64;38.43
52591;BME280;38483;42.620;25.394;2023-07-16T14:17:20;97126.94;;;33.53;37.75
52591;BME280;38483;42.620;25.394;2023-07-16T14:20:44;97125.66;;;33.62;37.55
52591;BME280;38483;42.620;25.394;2023-07-16T14:24:13;97120.06;;;33.64;37.41
52591;BME280;38483;42.620;25.394;2023-07-16T14:27:43;97106.94;;;33.36;37.27
52591;BME280;38483;42.620;25.394;2023-07-16T14:31:07;97136.47;;;33.23;38.38
52591;BME280;38483;42.620;25.394;2023-07-16T14:34:28;97135.81;;;33.41;38.90
52591;BME280;38483;42.620;25.394;2023-07-16T14:37:54;97134.84;;;33.86;37.44
52591;BME280;38483;42.620;25.394;2023-07-16T14:41:18;97135.53;;;33.75;37.87
52591;BME280;38483;42.620;25.394;2023-07-16T14:44:40;97136.78;;;33.79;37.52
52591;BME280;38483;42.620;25.394;2023-07-16T14:48:01;97132.84;;;33.82;37.28
52591;BME280;38483;42.620;25.394;2023-07-16T14:51:26;97120.69;;;33.66;37.18
52591;BME280;38483;42.620;25.394;2023-07-16T14:54:50;97134.31;;;33.78;37.62
52591;BME280;38483;42.620;25.394;2023-07-16T14:58:13;97125.69;;;33.56;38.56
52591;BME280;38483;42.620;25.394;2023-07-16T15:01:49;97071.41;;;33.34;37.61
52591;BME280;38483;42.620;25.394;2023-07-16T15:05:16;97133.50;;;33.71;38.20
52591;BME280;38483;42.620;25.394;2023-07-16T15:08:50;97131.66;;;33.64;38.45
52591;BME280;38483;42.620;25.394;2023-07-16T15:12:16;97119.09;;;33.52;38.59
52591;BME280;38483;42.620;25.394;2023-07-16T15:15:49;97127.75;;;33.47;38.41
52591;BME280;38483;42.620;25.394;2023-07-16T15:19:19;97120.25;;;33.76;38.70
52591;BME280;38483;42.620;25.394;2023-07-16T15:22:44;97102.53;;;33.48;37.98
52591;BME280;38483;42.620;25.394;2023-07-16T15:26:09;97122.22;;;33.36;39.27
52591;BME280;38483;42.620;25.394;2023-07-16T15:29:52;97122.00;;;33.50;38.59
52591;BME280;38483;42.620;25.394;2023-07-16T15:33:15;97122.53;;;33.65;38.35
52591;BME280;38483;42.620;25.394;2023-07-16T15:36:38;97116.75;;;33.69;38.05
52591;BME280;38483;42.620;25.394;2023-07-16T15:40:11;97126.03;;;33.73;38.93
52591;BME280;38483;42.620;25.394;2023-07-16T15:43:27;97124.78;;;33.75;38.23
52591;BME280;38483;42.620;25.394;2023-07-16T15:46:50;97122.97;;;33.62;38.65
52591;BME280;38483;42.620;25.394;2023-07-16T15:50:15;97105.81;;;33.63;38.80
52591;BME280;38483;42.620;25.394;2023-07-16T15:53:44;97122.75;;;33.64;38.35
52591;BME280;38483;42.620;25.394;2023-07-16T15:57:29;97121.56;;;33.53;38.66
52591;BME280;38483;42.620;25.394;2023-07-16T16:00:51;97127.31;;;33.63;38.03
52591;BME280;38483;42.620;25.394;2023-07-16T16:04:24;97129.81;;;33.65;38.88
52591;BME280;38483;42.620;25.394;2023-07-16T16:08:37;97126.06;;;33.59;38.69
52591;BME280;38483;42.620;25.394;2023-07-16T16:11:33;97122.00;;;33.50;39.20
52591;BME280;38483;42.620;25.394;2023-07-16T16:15:02;97103.81;;;33.33;38.82
52591;BME280;38483;42.620;25.394;2023-07-16T16:18:24;97133.56;;;33.44;38.48
52591;BME280;38483;42.620;25.394;2023-07-16T16:21:50;97138.53;;;33.34;39.00
52591;BME280;38483;42.620;25.394;2023-07-16T16:25:32;97134.41;;;33.19;39.42
52591;BME280;38483;42.620;25.394;2023-07-16T16:28:54;97132.97;;;33.29;39.48
52591;BME280;38483;42.620;25.394;2023-07-16T16:32:16;97136.88;;;33.20;39.56
52591;BME280;38483;42.620;25.394;2023-07-16T16:35:41;97132.41;;;33.01;39.68
52591;BME280;38483;42.620;25.394;2023-07-16T16:39:07;97141.84;;;33.23;39.05
52591;BME280;38483;42.620;25.394;2023-07-16T16:42:32;97143.13;;;33.01;41.04
52591;BME280;38483;42.620;25.394;2023-07-16T16:45:59;97140.81;;;32.92;41.17
52591;BME280;38483;42.620;25.394;2023-07-16T16:49:21;97127.81;;;32.82;41.20
52591;BME280;38483;42.620;25.394;2023-07-16T16:52:27;97138.16;;;32.85;41.67
52591;BME280;38483;42.620;25.394;2023-07-16T16:54:57;97147.06;;;33.05;40.42
52591;BME280;38483;42.620;25.394;2023-07-16T16:57:26;97138.13;;;32.92;41.03
52591;BME280;38483;42.620;25.394;2023-07-16T17:00:16;97147.66;;;32.74;41.38
52591;BME280;38483;42.620;25.394;2023-07-16T17:03:38;97155.50;;;32.89;41.49
52591;BME280;38483;42.620;25.394;2023-07-16T17:07:01;97136.88;;;32.81;41.73
52591;BME280;38483;42.620;25.394;2023-07-16T17:10:31;97107.19;;;32.50;42.30
52591;BME280;38483;42.620;25.394;2023-07-16T17:14:04;97158.78;;;32.78;42.17
52591;BME280;38483;42.620;25.394;2023-07-16T17:17:26;97136.91;;;32.61;42.41
52591;BME280;38483;42.620;25.394;2023-07-16T17:20:51;97166.00;;;32.58;43.15
52591;BME280;38483;42.620;25.394;2023-07-16T17:24:15;97147.81;;;32.47;42.82
52591;BME280;38483;42.620;25.394;2023-07-16T17:27:39;97158.72;;;32.45;43.48
52591;BME280;38483;42.620;25.394;2023-07-16T17:31:00;97159.94;;;32.43;43.32
52591;BME280;38483;42.620;25.394;2023-07-16T17:34:21;97170.47;;;32.44;43.39
52591;BME280;38483;42.620;25.394;2023-07-16T17:37:44;97168.16;;;32.22;43.82
52591;BME280;38483;42.620;25.394;2023-07-16T17:41:06;97170.63;;;32.30;43.86